sensor_id;sensor_type;location;lat;lon;timestamp;P1;durP1;ratioP1;P2;durP2;ratioP2
19022;SDS011;35226;48.606;8.858;2023-07-08T00:00:37;1.20;;;1.20;;
19022;SDS011;35226;48.606;8.858;2023-07-08T00:03:03;1.27;;;1.17;;
19022;SDS011;35226;48.606;8.858;2023-07-08T00:05:28;1.73;;;1.63;;
19022;SDS011;35226;48.606;8.858;2023-07-08T00:07:54;1.73;;;1.63;;
19022;SDS011;35226;48.606;8.858;2023-07-08T00:10:20;2.13;;;2.03;;
19022;SDS011;35226;48.606;8.858;2023-07-08T00:12:48;2.40;;;2.30;;
19022;SDS011;35226;48.606;8.858;2023-07-08T00:15:16;2.83;;;1.77;;
19022;SDS011;35226;48.606;8.858;2023-07-08T00:17:42;4.70;;;1.63;;
19022;SDS011;35226;48.606;8.858;2023-07-08T00:20:19;1.93;;;1.83;;
19022;SDS011;35226;48.606;8.858;2023-07-08T00:22:47;1.60;;;1.40;;
19022;SDS011;35226;48.606;8.858;2023-07-08T00:25:18;1.57;;;1.43;;
19022;SDS011;35226;48.606;8.858;2023-07-08T00:27:46;1.53;;;1.27;;
19022;SDS011;35226;48.606;8.858;2023-07-08T00:32:44;2.43;;;2.27;;
19022;SDS011;35226;48.606;8.858;2023-07-08T00:35:10;1.47;;;1.47;;
19022;SDS011;35226;48.606;8.858;2023-07-08T00:37:35;1.70;;;1.70;;
19022;SDS011;35226;48.606;8.858;2023-07-08T00:40:01;3.07;;;0.87;;
19022;SDS011;35226;48.606;8.858;2023-07-08T00:42:37;1.67;;;1.57;;
19022;SDS011;35226;48.606;8.858;2023-07-08T00:45:10;1.07;;;1.07;;
19022;SDS011;35226;48.606;8.858;2023-07-08T00:47:43;1.50;;;1.50;;
19022;SDS011;35226;48.606;8.858;2023-07-08T00:50:09;2.03;;;1.87;;
19022;SDS011;35226;48.606;8.858;2023-07-08T00:52:36;1.37;;;1.37;;
19022;SDS011;35226;48.606;8.858;2023-07-08T00:55:04;3.10;;;1.77;;
19022;SDS011;35226;48.606;8.858;2023-07-08T00:57:34;3.83;;;2.63;;
19022;SDS011;35226;48.606;8.858;2023-07-08T01:02:31;0.70;;;0.70;;
19022;SDS011;35226;48.606;8.858;2023-07-08T01:07:29;1.60;;;1.50;;
19022;SDS011;35226;48.606;8.858;2023-07-08T01:10:00;7.17;;;2.47;;
19022;SDS011;35226;48.606;8.858;2023-07-08T01:12:30;1.97;;;1.87;;
19022;SDS011;35226;48.606;8.858;2023-07-08T01:15:02;0.87;;;0.87;;
19022;SDS011;35226;48.606;8.858;2023-07-08T01:17:31;1.90;;;1.80;;
19022;SDS011;35226;48.606;8.858;2023-07-08T01:19:57;1.60;;;1.50;;
19022;SDS011;35226;48.606;8.858;2023-07-08T01:22:31;1.00;;;1.00;;
19022;SDS011;35226;48.606;8.858;2023-07-08T01:25:01;1.43;;;1.33;;
19022;SDS011;35226;48.606;8.858;2023-07-08T01:27:34;1.53;;;1.43;;
19022;SDS011;35226;48.606;8.858;2023-07-08T01:30:04;2.87;;;2.60;;
19022;SDS011;35226;48.606;8.858;2023-07-08T01:32:31;3.77;;;1.77;;
19022;SDS011;35226;48.606;8.858;2023-07-08T01:35:00;10.13;;;1.90;;
19022;SDS011;35226;48.606;8.858;2023-07-08T01:40:13;3.20;;;2.00;;
19022;SDS011;35226;48.606;8.858;2023-07-08T01:42:45;2.10;;;1.57;;
19022;SDS011;35226;48.606;8.858;2023-07-08T01:45:11;1.60;;;1.50;;
19022;SDS011;35226;48.606;8.858;2023-07-08T01:47:39;1.23;;;1.20;;
19022;SDS011;35226;48.606;8.858;2023-07-08T01:50:06;4.97;;;3.47;;
19022;SDS011;35226;48.606;8.858;2023-07-08T01:52:34;1.33;;;1.27;;
19022;SDS011;35226;48.606;8.858;2023-07-08T01:55:00;2.33;;;2.17;;
19022;SDS011;35226;48.606;8.858;2023-07-08T01:57:26;2.07;;;1.97;;
19022;SDS011;35226;48.606;8.858;2023-07-08T01:59:51;2.70;;;2.23;;
19022;SDS011;35226;48.606;8.858;2023-07-08T02:02:17;2.23;;;2.13;;
19022;SDS011;35226;48.606;8.858;2023-07-08T02:04:42;2.33;;;2.23;;
19022;SDS011;35226;48.606;8.858;2023-07-08T02:07:08;1.67;;;1.57;;
19022;SDS011;35226;48.606;8.858;2023-07-08T02:09:33;6.43;;;2.17;;
19022;SDS011;35226;48.606;8.858;2023-07-08T02:11:58;8.80;;;2.90;;
19022;SDS011;35226;48.606;8.858;2023-07-08T02:14:24;2.33;;;1.93;;
19022;SDS011;35226;48.606;8.858;2023-07-08T02:16:49;3.13;;;1.60;;
19022;SDS011;35226;48.606;8.858;2023-07-08T02:19:15;1.90;;;1.80;;
19022;SDS011;35226;48.606;8.858;2023-07-08T02:21:41;2.00;;;1.90;;
19022;SDS011;35226;48.606;8.858;2023-07-08T02:24:07;2.47;;;2.27;;
19022;SDS011;35226;48.606;8.858;2023-07-08T02:26:34;1.23;;;1.23;;
19022;SDS011;35226;48.606;8.858;2023-07-08T02:29:00;1.97;;;1.87;;
19022;SDS011;35226;48.606;8.858;2023-07-08T02:31:26;2.63;;;1.93;;
19022;SDS011;35226;48.606;8.858;2023-07-08T02:33:52;0.97;;;0.97;;
19022;SDS011;35226;48.606;8.858;2023-07-08T02:36:18;3.30;;;1.80;;
19022;SDS011;35226;48.606;8.858;2023-07-08T02:38:43;1.87;;;1.80;;
19022;SDS011;35226;48.606;8.858;2023-07-08T02:41:09;1.87;;;1.77;;
19022;SDS011;35226;48.606;8.858;2023-07-08T02:43:36;4.27;;;2.57;;
19022;SDS011;35226;48.606;8.858;2023-07-08T02:46:02;1.80;;;1.30;;
19022;SDS011;35226;48.606;8.858;2023-07-08T02:48:28;2.03;;;1.93;;
19022;SDS011;35226;48.606;8.858;2023-07-08T02:51:03;2.77;;;2.57;;
19022;SDS011;35226;48.606;8.858;2023-07-08T02:53:30;1.37;;;1.27;;
19022;SDS011;35226;48.606;8.858;2023-07-08T02:55:55;0.77;;;0.77;;
19022;SDS011;35226;48.606;8.858;2023-07-08T02:58:20;1.83;;;1.80;;
19022;SDS011;35226;48.606;8.858;2023-07-08T03:00:51;3.73;;;1.60;;
19022;SDS011;35226;48.606;8.858;2023-07-08T03:03:20;1.63;;;1.53;;
19022;SDS011;35226;48.606;8.858;2023-07-08T03:08:25;1.90;;;1.73;;
19022;SDS011;35226;48.606;8.858;2023-07-08T03:10:58;1.27;;;1.17;;
19022;SDS011;35226;48.606;8.858;2023-07-08T03:13:26;3.33;;;2.20;;
19022;SDS011;35226;48.606;8.858;2023-07-08T03:15:54;3.20;;;2.90;;
19022;SDS011;35226;48.606;8.858;2023-07-08T03:18:20;1.77;;;1.67;;
19022;SDS011;35226;48.606;8.858;2023-07-08T03:20:51;2.67;;;2.17;;
19022;SDS011;35226;48.606;8.858;2023-07-08T03:23:16;6.37;;;2.40;;
19022;SDS011;35226;48.606;8.858;2023-07-08T03:25:42;2.37;;;2.27;;
19022;SDS011;35226;48.606;8.858;2023-07-08T03:28:09;2.83;;;1.97;;
19022;SDS011;35226;48.606;8.858;2023-07-08T03:30:39;1.97;;;1.87;;
19022;SDS011;35226;48.606;8.858;2023-07-08T03:33:07;1.73;;;1.63;;
19022;SDS011;35226;48.606;8.858;2023-07-08T03:35:33;2.20;;;2.03;;
19022;SDS011;35226;48.606;8.858;2023-07-08T03:37:59;2.70;;;2.57;;
19022;SDS011;35226;48.606;8.858;2023-07-08T03:40:24;2.37;;;2.27;;
19022;SDS011;35226;48.606;8.858;2023-07-08T03:42:50;1.43;;;1.40;;
19022;SDS011;35226;48.606;8.858;2023-07-08T03:45:15;1.90;;;1.80;;
19022;SDS011;35226;48.606;8.858;2023-07-08T03:47:41;2.27;;;2.10;;
19022;SDS011;35226;48.606;8.858;2023-07-08T03:50:19;1.93;;;1.83;;
19022;SDS011;35226;48.606;8.858;2023-07-08T03:52:47;1.80;;;1.70;;
19022;SDS011;35226;48.606;8.858;2023-07-08T03:55:15;2.47;;;2.30;;
19022;SDS011;35226;48.606;8.858;2023-07-08T03:57:42;2.37;;;2.17;;
19022;SDS011;35226;48.606;8.858;2023-07-08T04:00:09;2.80;;;2.70;;
19022;SDS011;35226;48.606;8.858;2023-07-08T04:02:39;2.73;;;2.00;;
19022;SDS011;35226;48.606;8.858;2023-07-08T04:05:06;1.57;;;1.53;;
19022;SDS011;35226;48.606;8.858;2023-07-08T04:07:33;1.57;;;1.47;;
19022;SDS011;35226;48.606;8.858;2023-07-08T04:09:59;1.87;;;1.70;;
19022;SDS011;35226;48.606;8.858;2023-07-08T04:12:24;2.10;;;2.00;;
19022;SDS011;35226;48.606;8.858;2023-07-08T04:14:50;3.03;;;2.77;;
19022;SDS011;35226;48.606;8.858;2023-07-08T04:17:15;1.83;;;1.73;;
19022;SDS011;35226;48.606;8.858;2023-07-08T04:19:43;3.53;;;3.33;;
19022;SDS011;35226;48.606;8.858;2023-07-08T04:22:09;2.67;;;2.43;;
19022;SDS011;35226;48.606;8.858;2023-07-08T04:24:35;1.43;;;1.43;;
19022;SDS011;35226;48.606;8.858;2023-07-08T04:27:01;5.80;;;2.57;;
19022;SDS011;35226;48.606;8.858;2023-07-08T04:29:27;2.50;;;1.80;;
19022;SDS011;35226;48.606;8.858;2023-07-08T04:31:53;1.37;;;1.37;;
19022;SDS011;35226;48.606;8.858;2023-07-08T04:34:18;2.43;;;1.73;;
19022;SDS011;35226;48.606;8.858;2023-07-08T04:36:45;2.70;;;2.50;;
19022;SDS011;35226;48.606;8.858;2023-07-08T04:39:10;3.13;;;2.93;;
19022;SDS011;35226;48.606;8.858;2023-07-08T04:41:37;9.47;;;6.97;;
19022;SDS011;35226;48.606;8.858;2023-07-08T04:44:09;7.67;;;7.23;;
19022;SDS011;35226;48.606;8.858;2023-07-08T04:49:12;2.83;;;2.53;;
19022;SDS011;35226;48.606;8.858;2023-07-08T04:51:38;1.57;;;1.57;;
19022;SDS011;35226;48.606;8.858;2023-07-08T04:54:05;4.00;;;3.73;;
19022;SDS011;35226;48.606;8.858;2023-07-08T04:56:41;2.37;;;2.27;;
19022;SDS011;35226;48.606;8.858;2023-07-08T04:59:08;2.40;;;2.23;;
19022;SDS011;35226;48.606;8.858;2023-07-08T05:01:35;3.63;;;1.50;;
19022;SDS011;35226;48.606;8.858;2023-07-08T05:04:01;1.80;;;1.63;;
19022;SDS011;35226;48.606;8.858;2023-07-08T05:06:27;2.97;;;2.10;;
19022;SDS011;35226;48.606;8.858;2023-07-08T05:08:53;2.87;;;2.07;;
19022;SDS011;35226;48.606;8.858;2023-07-08T05:11:18;2.30;;;1.80;;
19022;SDS011;35226;48.606;8.858;2023-07-08T05:13:44;1.60;;;1.50;;
19022;SDS011;35226;48.606;8.858;2023-07-08T05:16:09;1.23;;;1.23;;
19022;SDS011;35226;48.606;8.858;2023-07-08T05:18:35;2.73;;;2.53;;
19022;SDS011;35226;48.606;8.858;2023-07-08T05:21:01;1.20;;;1.10;;
19022;SDS011;35226;48.606;8.858;2023-07-08T05:23:28;3.17;;;2.97;;
19022;SDS011;35226;48.606;8.858;2023-07-08T05:25:53;1.10;;;1.10;;
19022;SDS011;35226;48.606;8.858;2023-07-08T05:28:19;2.10;;;2.00;;
19022;SDS011;35226;48.606;8.858;2023-07-08T05:30:46;3.50;;;1.77;;
19022;SDS011;35226;48.606;8.858;2023-07-08T05:33:12;2.30;;;2.20;;
19022;SDS011;35226;48.606;8.858;2023-07-08T05:35:38;3.17;;;2.93;;
19022;SDS011;35226;48.606;8.858;2023-07-08T05:38:03;2.20;;;2.00;;
19022;SDS011;35226;48.606;8.858;2023-07-08T05:40:29;1.97;;;1.87;;
19022;SDS011;35226;48.606;8.858;2023-07-08T05:42:54;2.37;;;2.20;;
19022;SDS011;35226;48.606;8.858;2023-07-08T05:45:20;1.97;;;1.87;;
19022;SDS011;35226;48.606;8.858;2023-07-08T05:47:46;3.10;;;2.90;;
19022;SDS011;35226;48.606;8.858;2023-07-08T05:50:11;2.03;;;1.93;;
19022;SDS011;35226;48.606;8.858;2023-07-08T05:52:37;2.57;;;2.03;;
19022;SDS011;35226;48.606;8.858;2023-07-08T05:55:02;2.87;;;2.60;;
19022;SDS011;35226;48.606;8.858;2023-07-08T05:57:27;2.20;;;1.73;;
19022;SDS011;35226;48.606;8.858;2023-07-08T05:59:53;4.27;;;2.90;;
19022;SDS011;35226;48.606;8.858;2023-07-08T06:02:19;2.90;;;1.53;;
19022;SDS011;35226;48.606;8.858;2023-07-08T06:04:50;1.63;;;1.23;;
19022;SDS011;35226;48.606;8.858;2023-07-08T06:07:16;2.27;;;2.13;;
19022;SDS011;35226;48.606;8.858;2023-07-08T06:09:42;2.27;;;2.17;;
19022;SDS011;35226;48.606;8.858;2023-07-08T06:12:07;3.20;;;2.93;;
19022;SDS011;35226;48.606;8.858;2023-07-08T06:14:33;2.07;;;1.93;;
19022;SDS011;35226;48.606;8.858;2023-07-08T06:16:58;2.67;;;2.57;;
19022;SDS011;35226;48.606;8.858;2023-07-08T06:19:26;1.13;;;1.10;;
19022;SDS011;35226;48.606;8.858;2023-07-08T06:21:52;3.17;;;3.00;;
19022;SDS011;35226;48.606;8.858;2023-07-08T06:24:19;2.13;;;2.03;;
19022;SDS011;35226;48.606;8.858;2023-07-08T06:26:46;2.50;;;2.40;;
19022;SDS011;35226;48.606;8.858;2023-07-08T06:29:11;1.93;;;1.83;;
19022;SDS011;35226;48.606;8.858;2023-07-08T06:31:37;4.33;;;2.03;;
19022;SDS011;35226;48.606;8.858;2023-07-08T06:34:02;9.40;;;2.07;;
19022;SDS011;35226;48.606;8.858;2023-07-08T06:36:29;2.80;;;2.63;;
19022;SDS011;35226;48.606;8.858;2023-07-08T06:38:55;2.63;;;2.43;;
19022;SDS011;35226;48.606;8.858;2023-07-08T06:41:21;6.53;;;3.93;;
19022;SDS011;35226;48.606;8.858;2023-07-08T06:43:46;4.37;;;4.13;;
19022;SDS011;35226;48.606;8.858;2023-07-08T06:46:15;2.60;;;2.40;;
19022;SDS011;35226;48.606;8.858;2023-07-08T06:48:41;3.13;;;2.97;;
19022;SDS011;35226;48.606;8.858;2023-07-08T06:51:06;3.53;;;3.23;;
19022;SDS011;35226;48.606;8.858;2023-07-08T06:53:32;4.90;;;4.40;;
19022;SDS011;35226;48.606;8.858;2023-07-08T06:55:57;5.63;;;4.27;;
19022;SDS011;35226;48.606;8.858;2023-07-08T06:58:23;5.83;;;5.27;;
19022;SDS011;35226;48.606;8.858;2023-07-08T07:00:48;3.30;;;2.47;;
19022;SDS011;35226;48.606;8.858;2023-07-08T07:03:14;2.13;;;2.03;;
19022;SDS011;35226;48.606;8.858;2023-07-08T07:05:39;1.80;;;1.70;;
19022;SDS011;35226;48.606;8.858;2023-07-08T07:08:05;2.63;;;2.47;;
19022;SDS011;35226;48.606;8.858;2023-07-08T07:10:33;2.53;;;2.33;;
19022;SDS011;35226;48.606;8.858;2023-07-08T07:12:58;1.63;;;1.53;;
19022;SDS011;35226;48.606;8.858;2023-07-08T07:15:24;3.30;;;3.00;;
19022;SDS011;35226;48.606;8.858;2023-07-08T07:17:50;3.50;;;3.00;;
19022;SDS011;35226;48.606;8.858;2023-07-08T07:20:16;2.87;;;2.37;;
19022;SDS011;35226;48.606;8.858;2023-07-08T07:22:42;6.37;;;1.40;;
19022;SDS011;35226;48.606;8.858;2023-07-08T07:25:07;2.33;;;2.17;;
19022;SDS011;35226;48.606;8.858;2023-07-08T07:27:33;5.77;;;1.77;;
19022;SDS011;35226;48.606;8.858;2023-07-08T07:29:59;3.53;;;1.97;;
19022;SDS011;35226;48.606;8.858;2023-07-08T07:32:24;1.37;;;1.30;;
19022;SDS011;35226;48.606;8.858;2023-07-08T07:34:51;2.37;;;2.17;;
19022;SDS011;35226;48.606;8.858;2023-07-08T07:37:17;2.33;;;1.90;;
19022;SDS011;35226;48.606;8.858;2023-07-08T07:39:45;3.73;;;2.87;;
19022;SDS011;35226;48.606;8.858;2023-07-08T07:42:11;1.07;;;1.07;;
19022;SDS011;35226;48.606;8.858;2023-07-08T07:44:38;2.07;;;1.93;;
19022;SDS011;35226;48.606;8.858;2023-07-08T07:47:07;2.10;;;2.00;;
19022;SDS011;35226;48.606;8.858;2023-07-08T07:49:34;1.77;;;1.67;;
19022;SDS011;35226;48.606;8.858;2023-07-08T07:51:59;1.47;;;1.03;;
19022;SDS011;35226;48.606;8.858;2023-07-08T07:54:25;2.10;;;2.00;;
19022;SDS011;35226;48.606;8.858;2023-07-08T07:56:51;1.97;;;1.83;;
19022;SDS011;35226;48.606;8.858;2023-07-08T07:59:16;1.43;;;1.43;;
19022;SDS011;35226;48.606;8.858;2023-07-08T08:01:42;6.23;;;2.40;;
19022;SDS011;35226;48.606;8.858;2023-07-08T08:04:09;1.77;;;1.67;;
19022;SDS011;35226;48.606;8.858;2023-07-08T08:06:35;0.80;;;0.80;;
19022;SDS011;35226;48.606;8.858;2023-07-08T08:09:02;4.43;;;1.47;;
19022;SDS011;35226;48.606;8.858;2023-07-08T08:11:28;1.73;;;1.63;;
19022;SDS011;35226;48.606;8.858;2023-07-08T08:13:53;2.77;;;2.57;;
19022;SDS011;35226;48.606;8.858;2023-07-08T08:16:19;4.17;;;2.03;;
19022;SDS011;35226;48.606;8.858;2023-07-08T08:18:45;2.23;;;2.03;;
19022;SDS011;35226;48.606;8.858;2023-07-08T08:21:11;3.97;;;2.43;;
19022;SDS011;35226;48.606;8.858;2023-07-08T08:23:36;1.57;;;1.47;;
19022;SDS011;35226;48.606;8.858;2023-07-08T08:26:02;1.17;;;1.13;;
19022;SDS011;35226;48.606;8.858;2023-07-08T08:28:27;2.30;;;2.20;;
19022;SDS011;35226;48.606;8.858;2023-07-08T08:30:53;2.23;;;1.93;;
19022;SDS011;35226;48.606;8.858;2023-07-08T08:33:18;2.60;;;2.40;;
19022;SDS011;35226;48.606;8.858;2023-07-08T08:35:44;1.10;;;1.10;;
19022;SDS011;35226;48.606;8.858;2023-07-08T08:38:10;1.63;;;1.50;;
19022;SDS011;35226;48.606;8.858;2023-07-08T08:40:36;2.67;;;1.60;;
19022;SDS011;35226;48.606;8.858;2023-07-08T08:43:02;1.23;;;1.23;;
19022;SDS011;35226;48.606;8.858;2023-07-08T08:45:34;1.90;;;1.80;;
19022;SDS011;35226;48.606;8.858;2023-07-08T08:48:06;2.70;;;1.33;;
19022;SDS011;35226;48.606;8.858;2023-07-08T08:50:44;0.97;;;0.97;;
19022;SDS011;35226;48.606;8.858;2023-07-08T08:53:25;1.70;;;1.60;;
19022;SDS011;35226;48.606;8.858;2023-07-08T08:59:07;1.10;;;1.00;;
19022;SDS011;35226;48.606;8.858;2023-07-08T09:01:56;2.25;;;1.48;;
19022;SDS011;35226;48.606;8.858;2023-07-08T09:04:25;3.50;;;2.07;;
19022;SDS011;35226;48.606;8.858;2023-07-08T09:06:57;1.35;;;1.25;;
19022;SDS011;35226;48.606;8.858;2023-07-08T09:09:33;1.50;;;1.40;;
19022;SDS011;35226;48.606;8.858;2023-07-08T09:12:05;2.42;;;2.22;;
19022;SDS011;35226;48.606;8.858;2023-07-08T09:14:35;0.88;;;0.88;;
19022;SDS011;35226;48.606;8.858;2023-07-08T09:22:31;3.22;;;1.48;;
19022;SDS011;35226;48.606;8.858;2023-07-08T09:27:26;1.10;;;0.82;;
19022;SDS011;35226;48.606;8.858;2023-07-08T09:29:51;0.95;;;0.95;;
19022;SDS011;35226;48.606;8.858;2023-07-08T09:32:18;0.28;;;0.28;;
19022;SDS011;35226;48.606;8.858;2023-07-08T09:34:50;1.48;;;1.35;;
19022;SDS011;35226;48.606;8.858;2023-07-08T09:37:21;0.38;;;0.38;;
19022;SDS011;35226;48.606;8.858;2023-07-08T09:39:49;1.75;;;1.23;;
19022;SDS011;35226;48.606;8.858;2023-07-08T09:42:15;8.77;;;0.98;;
19022;SDS011;35226;48.606;8.858;2023-07-08T09:44:43;0.88;;;0.88;;
19022;SDS011;35226;48.606;8.858;2023-07-08T09:47:19;0.90;;;0.90;;
19022;SDS011;35226;48.606;8.858;2023-07-08T09:49:47;4.82;;;1.02;;
19022;SDS011;35226;48.606;8.858;2023-07-08T09:52:13;2.50;;;1.15;;
19022;SDS011;35226;48.606;8.858;2023-07-08T09:54:40;0.73;;;0.73;;
19022;SDS011;35226;48.606;8.858;2023-07-08T09:57:11;0.95;;;0.90;;
19022;SDS011;35226;48.606;8.858;2023-07-08T09:59:47;0.93;;;0.35;;
19022;SDS011;35226;48.606;8.858;2023-07-08T10:02:38;0.68;;;0.68;;
19022;SDS011;35226;48.606;8.858;2023-07-08T10:05:19;1.67;;;1.15;;
19022;SDS011;35226;48.606;8.858;2023-07-08T10:07:52;1.27;;;1.20;;
19022;SDS011;35226;48.606;8.858;2023-07-08T10:10:29;0.45;;;0.45;;
19022;SDS011;35226;48.606;8.858;2023-07-08T10:13:06;0.90;;;0.90;;
19022;SDS011;35226;48.606;8.858;2023-07-08T10:15:38;0.52;;;0.52;;
19022;SDS011;35226;48.606;8.858;2023-07-08T10:18:19;0.70;;;0.70;;
19022;SDS011;35226;48.606;8.858;2023-07-08T10:26:24;3.00;;;1.40;;
19022;SDS011;35226;48.606;8.858;2023-07-08T10:31:51;0.52;;;0.52;;
19022;SDS011;35226;48.606;8.858;2023-07-08T10:34:40;0.43;;;0.43;;
19022;SDS011;35226;48.606;8.858;2023-07-08T10:40:00;1.08;;;0.57;;
19022;SDS011;35226;48.606;8.858;2023-07-08T10:45:45;0.95;;;0.88;;
19022;SDS011;35226;48.606;8.858;2023-07-08T10:56:20;8.10;;;0.90;;
19022;SDS011;35226;48.606;8.858;2023-07-08T11:01:46;1.10;;;0.73;;
19022;SDS011;35226;48.606;8.858;2023-07-08T11:06:59;0.60;;;0.60;;
19022;SDS011;35226;48.606;8.858;2023-07-08T11:09:37;0.73;;;0.73;;
19022;SDS011;35226;48.606;8.858;2023-07-08T11:12:17;1.75;;;1.15;;
19022;SDS011;35226;48.606;8.858;2023-07-08T11:14:46;0.40;;;0.40;;
19022;SDS011;35226;48.606;8.858;2023-07-08T11:17:34;1.23;;;1.05;;
19022;SDS011;35226;48.606;8.858;2023-07-08T11:20:12;0.75;;;0.75;;
19022;SDS011;35226;48.606;8.858;2023-07-08T11:22:41;1.48;;;1.40;;
19022;SDS011;35226;48.606;8.858;2023-07-08T11:25:36;0.40;;;0.40;;
19022;SDS011;35226;48.606;8.858;2023-07-08T11:28:04;1.08;;;1.08;;
19022;SDS011;35226;48.606;8.858;2023-07-08T11:30:38;0.68;;;0.65;;
19022;SDS011;35226;48.606;8.858;2023-07-08T11:33:09;0.35;;;0.35;;
19022;SDS011;35226;48.606;8.858;2023-07-08T11:35:47;1.73;;;1.27;;
19022;SDS011;35226;48.606;8.858;2023-07-08T11:38:17;0.30;;;0.30;;
19022;SDS011;35226;48.606;8.858;2023-07-08T11:40:56;1.67;;;1.58;;
19022;SDS011;35226;48.606;8.858;2023-07-08T11:43:46;0.57;;;0.57;;
19022;SDS011;35226;48.606;8.858;2023-07-08T11:46:22;0.93;;;0.93;;
19022;SDS011;35226;48.606;8.858;2023-07-08T11:48:57;0.50;;;0.50;;
19022;SDS011;35226;48.606;8.858;2023-07-08T11:51:30;0.20;;;0.20;;
19022;SDS011;35226;48.606;8.858;2023-07-08T11:54:26;1.30;;;1.30;;
19022;SDS011;35226;48.606;8.858;2023-07-08T11:56:58;2.25;;;0.80;;
19022;SDS011;35226;48.606;8.858;2023-07-08T11:59:28;1.50;;;1.40;;
19022;SDS011;35226;48.606;8.858;2023-07-08T12:02:03;0.40;;;0.40;;
19022;SDS011;35226;48.606;8.858;2023-07-08T12:04:35;0.57;;;0.57;;
19022;SDS011;35226;48.606;8.858;2023-07-08T12:07:20;0.73;;;0.73;;
19022;SDS011;35226;48.606;8.858;2023-07-08T12:09:58;4.38;;;1.25;;
19022;SDS011;35226;48.606;8.858;2023-07-08T12:12:34;2.38;;;1.30;;
19022;SDS011;35226;48.606;8.858;2023-07-08T12:15:16;0.50;;;0.50;;
19022;SDS011;35226;48.606;8.858;2023-07-08T12:17:55;0.68;;;0.55;;
19022;SDS011;35226;48.606;8.858;2023-07-08T12:20:32;0.70;;;0.70;;
19022;SDS011;35226;48.606;8.858;2023-07-08T12:23:00;0.93;;;0.93;;
19022;SDS011;35226;48.606;8.858;2023-07-08T12:25:35;0.50;;;0.50;;
19022;SDS011;35226;48.606;8.858;2023-07-08T12:28:00;0.40;;;0.40;;
19022;SDS011;35226;48.606;8.858;2023-07-08T12:30:27;1.33;;;1.15;;
19022;SDS011;35226;48.606;8.858;2023-07-08T12:32:55;1.00;;;0.88;;
19022;SDS011;35226;48.606;8.858;2023-07-08T12:35:25;1.52;;;1.42;;
19022;SDS011;35226;48.606;8.858;2023-07-08T12:37:54;0.68;;;0.68;;
19022;SDS011;35226;48.606;8.858;2023-07-08T12:40:22;0.40;;;0.40;;
19022;SDS011;35226;48.606;8.858;2023-07-08T12:42:50;0.95;;;0.88;;
19022;SDS011;35226;48.606;8.858;2023-07-08T12:45:17;0.80;;;0.80;;
19022;SDS011;35226;48.606;8.858;2023-07-08T12:47:45;0.70;;;0.70;;
19022;SDS011;35226;48.606;8.858;2023-07-08T12:50:11;0.40;;;0.40;;
19022;SDS011;35226;48.606;8.858;2023-07-08T12:52:38;0.52;;;0.52;;
19022;SDS011;35226;48.606;8.858;2023-07-08T12:55:05;0.55;;;0.50;;
19022;SDS011;35226;48.606;8.858;2023-07-08T12:57:33;0.47;;;0.47;;
19022;SDS011;35226;48.606;8.858;2023-07-08T12:59:59;0.30;;;0.30;;
19022;SDS011;35226;48.606;8.858;2023-07-08T13:02:26;0.63;;;0.63;;
19022;SDS011;35226;48.606;8.858;2023-07-08T13:04:56;3.80;;;1.40;;
19022;SDS011;35226;48.606;8.858;2023-07-08T13:07:31;0.93;;;0.93;;
19022;SDS011;35226;48.606;8.858;2023-07-08T13:10:00;5.47;;;0.70;;
19022;SDS011;35226;48.606;8.858;2023-07-08T13:12:27;1.02;;;0.50;;
19022;SDS011;35226;48.606;8.858;2023-07-08T13:14:53;0.82;;;0.82;;
19022;SDS011;35226;48.606;8.858;2023-07-08T13:17:22;0.43;;;0.35;;
19022;SDS011;35226;48.606;8.858;2023-07-08T13:19:49;1.17;;;1.13;;
19022;SDS011;35226;48.606;8.858;2023-07-08T13:22:15;0.47;;;0.47;;
19022;SDS011;35226;48.606;8.858;2023-07-08T13:24:43;1.40;;;1.30;;
19022;SDS011;35226;48.606;8.858;2023-07-08T13:27:16;1.58;;;1.48;;
19022;SDS011;35226;48.606;8.858;2023-07-08T13:29:47;2.15;;;1.02;;
19022;SDS011;35226;48.606;8.858;2023-07-08T13:32:13;2.63;;;1.75;;
19022;SDS011;35226;48.606;8.858;2023-07-08T13:34:40;2.10;;;1.05;;
19022;SDS011;35226;48.606;8.858;2023-07-08T13:37:09;0.52;;;0.52;;
19022;SDS011;35226;48.606;8.858;2023-07-08T13:39:36;1.15;;;1.10;;
19022;SDS011;35226;48.606;8.858;2023-07-08T13:42:02;1.05;;;1.05;;
19022;SDS011;35226;48.606;8.858;2023-07-08T13:44:28;3.72;;;1.30;;
19022;SDS011;35226;48.606;8.858;2023-07-08T13:46:58;0.95;;;0.95;;
19022;SDS011;35226;48.606;8.858;2023-07-08T13:54:48;1.10;;;1.10;;
19022;SDS011;35226;48.606;8.858;2023-07-08T13:57:17;2.95;;;0.55;;
19022;SDS011;35226;48.606;8.858;2023-07-08T13:59:44;0.52;;;0.52;;
19022;SDS011;35226;48.606;8.858;2023-07-08T14:02:20;0.82;;;0.80;;
19022;SDS011;35226;48.606;8.858;2023-07-08T14:04:48;0.93;;;0.93;;
19022;SDS011;35226;48.606;8.858;2023-07-08T14:07:26;1.50;;;1.40;;
19022;SDS011;35226;48.606;8.858;2023-07-08T14:09:53;1.33;;;1.25;;
19022;SDS011;35226;48.606;8.858;2023-07-08T14:12:19;1.30;;;1.20;;
19022;SDS011;35226;48.606;8.858;2023-07-08T14:14:45;0.80;;;0.77;;
19022;SDS011;35226;48.606;8.858;2023-07-08T14:17:11;2.03;;;1.33;;
19022;SDS011;35226;48.606;8.858;2023-07-08T14:19:40;0.38;;;0.38;;
19022;SDS011;35226;48.606;8.858;2023-07-08T14:24:37;1.27;;;1.17;;
19022;SDS011;35226;48.606;8.858;2023-07-08T14:27:02;0.60;;;0.50;;
19022;SDS011;35226;48.606;8.858;2023-07-08T14:29:28;1.10;;;1.00;;
19022;SDS011;35226;48.606;8.858;2023-07-08T14:31:54;2.08;;;1.20;;
19022;SDS011;35226;48.606;8.858;2023-07-08T14:34:26;1.67;;;1.58;;
19022;SDS011;35226;48.606;8.858;2023-07-08T14:36:52;1.38;;;0.93;;
19022;SDS011;35226;48.606;8.858;2023-07-08T14:39:18;0.80;;;0.80;;
19022;SDS011;35226;48.606;8.858;2023-07-08T14:41:45;0.70;;;0.70;;
19022;SDS011;35226;48.606;8.858;2023-07-08T14:46:52;0.65;;;0.65;;
19022;SDS011;35226;48.606;8.858;2023-07-08T14:49:19;1.20;;;1.20;;
19022;SDS011;35226;48.606;8.858;2023-07-08T14:51:46;0.60;;;0.60;;
19022;SDS011;35226;48.606;8.858;2023-07-08T14:54:11;0.50;;;0.50;;
19022;SDS011;35226;48.606;8.858;2023-07-08T14:56:37;2.03;;;1.25;;
19022;SDS011;35226;48.606;8.858;2023-07-08T14:59:04;1.10;;;1.08;;
19022;SDS011;35226;48.606;8.858;2023-07-08T15:01:30;0.95;;;0.95;;
19022;SDS011;35226;48.606;8.858;2023-07-08T15:03:56;0.68;;;0.63;;
19022;SDS011;35226;48.606;8.858;2023-07-08T15:06:23;0.75;;;0.70;;
19022;SDS011;35226;48.606;8.858;2023-07-08T15:08:49;1.50;;;1.17;;
19022;SDS011;35226;48.606;8.858;2023-07-08T15:11:14;0.43;;;0.43;;
19022;SDS011;35226;48.606;8.858;2023-07-08T15:13:41;0.70;;;0.70;;
19022;SDS011;35226;48.606;8.858;2023-07-08T15:16:13;1.00;;;1.00;;
19022;SDS011;35226;48.606;8.858;2023-07-08T15:18:40;2.90;;;1.05;;
19022;SDS011;35226;48.606;8.858;2023-07-08T15:21:10;0.32;;;0.32;;
19022;SDS011;35226;48.606;8.858;2023-07-08T15:23:39;2.28;;;1.52;;
19022;SDS011;35226;48.606;8.858;2023-07-08T15:26:05;0.50;;;0.50;;
19022;SDS011;35226;48.606;8.858;2023-07-08T15:28:39;0.30;;;0.30;;
19022;SDS011;35226;48.606;8.858;2023-07-08T15:31:10;0.82;;;0.75;;
19022;SDS011;35226;48.606;8.858;2023-07-08T15:33:38;0.88;;;0.88;;
19022;SDS011;35226;48.606;8.858;2023-07-08T15:36:03;1.10;;;0.95;;
19022;SDS011;35226;48.606;8.858;2023-07-08T15:38:29;0.47;;;0.47;;
19022;SDS011;35226;48.606;8.858;2023-07-08T15:40:54;2.50;;;0.93;;
19022;SDS011;35226;48.606;8.858;2023-07-08T15:43:20;0.70;;;0.70;;
19022;SDS011;35226;48.606;8.858;2023-07-08T15:45:45;1.73;;;1.45;;
19022;SDS011;35226;48.606;8.858;2023-07-08T15:48:14;0.85;;;0.85;;
19022;SDS011;35226;48.606;8.858;2023-07-08T15:50:41;1.10;;;1.10;;
19022;SDS011;35226;48.606;8.858;2023-07-08T15:53:07;3.00;;;1.00;;
19022;SDS011;35226;48.606;8.858;2023-07-08T15:55:37;1.27;;;1.17;;
19022;SDS011;35226;48.606;8.858;2023-07-08T15:58:08;0.77;;;0.77;;
19022;SDS011;35226;48.606;8.858;2023-07-08T16:00:38;1.15;;;1.15;;